sensor_id;sensor_type;location;lat;lon;timestamp;pressure;altitude;pressure_sealevel;temperature;humidity
4392;BME280;2210;51.938;8.488;2023-09-12T00:03:42;100156.00;;;22.11;91.81
4392;BME280;2210;51.938;8.488;2023-09-12T00:07:42;100158.28;;;22.09;92.99
4392;BME280;2210;51.938;8.488;2023-09-12T00:11:48;100148.88;;;22.05;92.93
4392;BME280;2210;51.938;8.488;2023-09-12T00:15:52;100151.31;;;21.98;92.79
4392;BME280;2210;51.938;8.488;2023-09-12T00:19:55;100151.94;;;21.95;95.03
4392;BME280;2210;51.938;8.488;2023-09-12T00:23:55;100145.88;;;22.01;95.36
4392;BME280;2210;51.938;8.488;2023-09-12T00:27:58;100141.56;;;21.95;95.82
4392;BME280;2210;51.938;8.488;2023-09-12T00:32:02;100128.69;;;21.94;95.62
4392;BME280;2210;51.938;8.488;2023-09-12T00:36:02;100130.34;;;21.95;95.62
4392;BME280;2210;51.938;8.488;2023-09-12T00:40:18;100137.63;;;21.96;97.02
4392;BME280;2210;51.938;8.488;2023-09-12T00:44:21;100141.56;;;21.95;98.30
4392;BME280;2210;51.938;8.488;2023-09-12T00:48:22;100140.22;;;21.93;98.84
4392;BME280;2210;51.938;8.488;2023-09-12T00:52:25;100151.31;;;21.98;97.92
4392;BME280;2210;51.938;8.488;2023-09-12T00:56:26;100158.94;;;22.06;96.70
4392;BME280;2210;51.938;8.488;2023-09-12T01:00:30;100202.47;;;21.95;96.66
4392;BME280;2210;51.938;8.488;2023-09-12T01:04:35;100204.13;;;21.64;99.43
4392;BME280;2210;51.938;8.488;2023-09-12T01:08:35;100199.34;;;21.65;100.00
4392;BME280;2210;51.938;8.488;2023-09-12T01:12:41;100193.22;;;21.63;100.00
4392;BME280;2210;51.938;8.488;2023-09-12T01:16:41;100174.13;;;21.51;100.00
4392;BME280;2210;51.938;8.488;2023-09-12T01:21:00;100179.44;;;21.52;100.00
4392;BME280;2210;51.938;8.488;2023-09-12T01:29:24;100171.22;;;21.33;100.00
4392;BME280;2210;51.938;8.488;2023-09-12T01:33:32;100167.91;;;21.31;100.00
4392;BME280;2210;51.938;8.488;2023-09-12T01:37:54;100173.31;;;21.28;100.00
4392;BME280;2210;51.938;8.488;2023-09-12T01:41:54;100182.38;;;21.25;100.00
4392;BME280;2210;51.938;8.488;2023-09-12T01:45:57;100183.53;;;21.23;100.00
4392;BME280;2210;51.938;8.488;2023-09-12T01:50:00;100191.81;;;21.29;100.00
4392;BME280;2210;51.938;8.488;2023-09-12T01:54:03;100195.13;;;21.31;100.00
4392;BME280;2210;51.938;8.488;2023-09-12T01:58:04;100187.88;;;21.30;100.00
4392;BME280;2210;51.938;8.488;2023-09-12T02:02:04;100178.81;;;21.33;100.00
4392;BME280;2210;51.938;8.488;2023-09-12T02:06:11;100188.31;;;21.23;100.00
4392;BME280;2210;51.938;8.488;2023-09-12T02:10:12;100208.88;;;21.18;100.00
4392;BME280;2210;51.938;8.488;2023-09-12T02:14:18;100207.09;;;21.22;100.00
4392;BME280;2210;51.938;8.488;2023-09-12T02:18:19;100223.09;;;21.22;100.00
4392;BME280;2210;51.938;8.488;2023-09-12T02:22:19;100269.19;;;21.30;100.00
4392;BME280;2210;51.938;8.488;2023-09-12T02:26:19;100322.06;;;21.09;100.00
4392;BME280;2210;51.938;8.488;2023-09-12T02:30:19;100334.19;;;20.62;100.00
4392;BME280;2210;51.938;8.488;2023-09-12T02:34:20;100318.44;;;20.66;100.00
4392;BME280;2210;51.938;8.488;2023-09-12T02:38:20;100300.22;;;20.69;100.00
4392;BME280;2210;51.938;8.488;2023-09-12T02:42:20;100265.97;;;20.72;100.00
4392;BME280;2210;51.938;8.488;2023-09-12T02:46:21;100231.91;;;20.79;100.00
4392;BME280;2210;51.938;8.488;2023-09-12T02:50:21;100198.69;;;20.86;100.00
4392;BME280;2210;51.938;8.488;2023-09-12T02:54:24;100147.16;;;20.73;100.00
4392;BME280;2210;51.938;8.488;2023-09-12T02:58:28;100113.75;;;20.63;100.00
4392;BME280;2210;51.938;8.488;2023-09-12T03:02:28;100115.91;;;20.66;100.00
4392;BME280;2210;51.938;8.488;2023-09-12T03:06:29;100121.63;;;20.75;100.00
4392;BME280;2210;51.938;8.488;2023-09-12T03:10:30;100112.53;;;20.69;100.00
4392;BME280;2210;51.938;8.488;2023-09-12T03:14:33;100112.19;;;20.70;100.00
4392;BME280;2210;51.938;8.488;2023-09-12T03:18:36;100136.34;;;20.80;100.00
4392;BME280;2210;51.938;8.488;2023-09-12T03:22:40;100147.50;;;20.94;100.00
4392;BME280;2210;51.938;8.488;2023-09-12T03:26:40;100137.75;;;20.92;100.00
4392;BME280;2210;51.938;8.488;2023-09-12T03:30:41;100155.56;;;20.96;100.00
4392;BME280;2210;51.938;8.488;2023-09-12T03:34:41;100182.56;;;21.05;100.00
4392;BME280;2210;51.938;8.488;2023-09-12T03:38:41;100184.66;;;21.00;100.00
4392;BME280;2210;51.938;8.488;2023-09-12T03:42:45;100218.16;;;21.05;100.00
4392;BME280;2210;51.938;8.488;2023-09-12T03:46:45;100261.47;;;20.99;100.00
4392;BME280;2210;51.938;8.488;2023-09-12T03:50:49;100282.25;;;20.84;100.00
4392;BME280;2210;51.938;8.488;2023-09-12T03:54:55;100266.53;;;20.97;100.00
4392;BME280;2210;51.938;8.488;2023-09-12T03:58:55;100229.72;;;20.89;100.00
4392;BME280;2210;51.938;8.488;2023-09-12T04:02:57;100192.69;;;20.79;100.00
4392;BME280;2210;51.938;8.488;2023-09-12T04:07:04;100192.06;;;20.82;100.00
4392;BME280;2210;51.938;8.488;2023-09-12T04:11:04;100174.31;;;20.86;100.00
4392;BME280;2210;51.938;8.488;2023-09-12T04:15:06;100162.09;;;20.68;100.00
4392;BME280;2210;51.938;8.488;2023-09-12T04:19:15;100190.31;;;20.72;99.67
4392;BME280;2210;51.938;8.488;2023-09-12T04:23:19;100215.31;;;20.68;100.00
4392;BME280;2210;51.938;8.488;2023-09-12T04:27:22;100233.91;;;20.78;100.00
4392;BME280;2210;51.938;8.488;2023-09-12T04:31:22;100233.47;;;20.85;100.00
4392;BME280;2210;51.938;8.488;2023-09-12T04:35:22;100230.47;;;20.81;100.00
4392;BME280;2210;51.938;8.488;2023-09-12T04:39:25;100235.00;;;20.91;100.00
4392;BME280;2210;51.938;8.488;2023-09-12T04:43:25;100250.28;;;20.85;100.00
4392;BME280;2210;51.938;8.488;2023-09-12T04:47:28;100265.34;;;20.89;100.00
4392;BME280;2210;51.938;8.488;2023-09-12T04:51:28;100244.69;;;20.71;100.00
4392;BME280;2210;51.938;8.488;2023-09-12T04:55:36;100241.34;;;20.41;100.00
4392;BME280;2210;51.938;8.488;2023-09-12T04:59:39;100226.53;;;20.27;100.00
4392;BME280;2210;51.938;8.488;2023-09-12T05:03:39;100197.94;;;19.83;100.00
4392;BME280;2210;51.938;8.488;2023-09-12T05:07:46;100188.78;;;19.77;100.00
4392;BME280;2210;51.938;8.488;2023-09-12T05:11:46;100200.59;;;19.60;100.00
4392;BME280;2210;51.938;8.488;2023-09-12T05:15:49;100217.56;;;19.64;100.00
4392;BME280;2210;51.938;8.488;2023-09-12T05:19:49;100219.22;;;19.32;100.00
4392;BME280;2210;51.938;8.488;2023-09-12T05:23:50;100186.53;;;19.13;100.00
4392;BME280;2210;51.938;8.488;2023-09-12T05:27:54;100174.38;;;19.37;100.00
4392;BME280;2210;51.938;8.488;2023-09-12T05:31:54;100164.28;;;19.41;100.00
4392;BME280;2210;51.938;8.488;2023-09-12T05:36:01;100183.44;;;19.48;100.00
4392;BME280;2210;51.938;8.488;2023-09-12T05:40:03;100164.28;;;19.22;100.00
4392;BME280;2210;51.938;8.488;2023-09-12T05:44:04;100176.75;;;19.30;100.00
4392;BME280;2210;51.938;8.488;2023-09-12T05:48:04;100182.09;;;19.45;100.00
4392;BME280;2210;51.938;8.488;2023-09-12T05:52:05;100172.22;;;19.34;100.00
4392;BME280;2210;51.938;8.488;2023-09-12T05:56:17;100153.34;;;19.26;100.00
4392;BME280;2210;51.938;8.488;2023-09-12T06:00:20;100127.09;;;19.08;100.00
4392;BME280;2210;51.938;8.488;2023-09-12T06:04:24;100144.25;;;19.01;100.00
4392;BME280;2210;51.938;8.488;2023-09-12T06:08:24;100124.56;;;19.25;100.00
4392;BME280;2210;51.938;8.488;2023-09-12T06:12:31;100157.19;;;19.30;100.00
4392;BME280;2210;51.938;8.488;2023-09-12T06:16:45;100135.94;;;19.29;100.00
4392;BME280;2210;51.938;8.488;2023-09-12T06:20:45;100139.78;;;19.33;100.00
4392;BME280;2210;51.938;8.488;2023-09-12T06:24:46;100122.19;;;19.32;100.00
4392;BME280;2210;51.938;8.488;2023-09-12T06:29:04;100113.16;;;19.21;100.00
4392;BME280;2210;51.938;8.488;2023-09-12T06:33:05;100119.09;;;19.34;100.00
4392;BME280;2210;51.938;8.488;2023-09-12T06:37:14;100126.78;;;19.42;100.00
4392;BME280;2210;51.938;8.488;2023-09-12T06:41:24;100130.41;;;19.43;100.00
4392;BME280;2210;51.938;8.488;2023-09-12T06:45:24;100141.38;;;19.39;100.00
4392;BME280;2210;51.938;8.488;2023-09-12T06:49:25;100170.28;;;19.48;100.00
4392;BME280;2210;51.938;8.488;2023-09-12T06:53:28;100199.81;;;19.54;100.00
4392;BME280;2210;51.938;8.488;2023-09-12T06:57:28;100209.44;;;19.48;100.00
4392;BME280;2210;51.938;8.488;2023-09-12T07:01:35;100176.66;;;19.35;100.00
4392;BME280;2210;51.938;8.488;2023-09-12T07:05:44;100171.63;;;19.18;100.00
4392;BME280;2210;51.938;8.488;2023-09-12T07:10:00;100199.72;;;19.27;100.00
4392;BME280;2210;51.938;8.488;2023-09-12T07:19:00;100256.16;;;19.29;100.00
4392;BME280;2210;51.938;8.488;2023-09-12T07:23:19;100263.09;;;18.93;100.00
4392;BME280;2210;51.938;8.488;2023-09-12T07:27:22;100238.66;;;18.80;100.00
4392;BME280;2210;51.938;8.488;2023-09-12T07:31:25;100239.94;;;18.87;100.00
4392;BME280;2210;51.938;8.488;2023-09-12T07:35:31;100215.41;;;18.84;100.00
4392;BME280;2210;51.938;8.488;2023-09-12T07:39:31;100208.22;;;18.78;100.00
4392;BME280;2210;51.938;8.488;2023-09-12T07:43:41;100229.63;;;18.88;100.00
4392;BME280;2210;51.938;8.488;2023-09-12T07:47:41;100250.31;;;18.87;100.00
4392;BME280;2210;51.938;8.488;2023-09-12T07:51:44;100233.47;;;18.92;100.00
4392;BME280;2210;51.938;8.488;2023-09-12T07:55:45;100227.69;;;18.89;100.00
4392;BME280;2210;51.938;8.488;2023-09-12T07:59:49;100243.34;;;18.84;100.00
4392;BME280;2210;51.938;8.488;2023-09-12T08:03:52;100278.50;;;18.85;100.00
4392;BME280;2210;51.938;8.488;2023-09-12T08:07:53;100312.19;;;18.99;100.00
4392;BME280;2210;51.938;8.488;2023-09-12T08:11:56;100358.00;;;18.98;100.00
4392;BME280;2210;51.938;8.488;2023-09-12T08:16:05;100376.00;;;19.11;100.00
4392;BME280;2210;51.938;8.488;2023-09-12T08:20:14;100343.03;;;18.89;100.00
4392;BME280;2210;51.938;8.488;2023-09-12T08:24:15;100374.44;;;18.76;100.00
4392;BME280;2210;51.938;8.488;2023-09-12T08:28:21;100389.34;;;18.95;100.00
4392;BME280;2210;51.938;8.488;2023-09-12T08:32:21;100368.41;;;18.93;100.00
4392;BME280;2210;51.938;8.488;2023-09-12T08:36:22;100299.16;;;18.65;100.00
4392;BME280;2210;51.938;8.488;2023-09-12T08:40:22;100363.06;;;18.72;100.00
4392;BME280;2210;51.938;8.488;2023-09-12T08:44:26;100399.22;;;18.82;100.00
4392;BME280;2210;51.938;8.488;2023-09-12T08:48:27;100389.81;;;18.73;100.00
4392;BME280;2210;51.938;8.488;2023-09-12T08:52:35;100348.59;;;18.65;100.00
4392;BME280;2210;51.938;8.488;2023-09-12T08:56:51;100344.38;;;18.67;100.00
4392;BME280;2210;51.938;8.488;2023-09-12T09:00:51;100347.22;;;18.86;100.00
4392;BME280;2210;51.938;8.488;2023-09-12T09:04:55;100318.47;;;18.62;100.00
4392;BME280;2210;51.938;8.488;2023-09-12T09:09:04;100325.78;;;18.58;100.00
4392;BME280;2210;51.938;8.488;2023-09-12T09:13:05;100315.78;;;18.51;100.00
4392;BME280;2210;51.938;8.488;2023-09-12T09:17:07;100340.34;;;18.54;100.00
4392;BME280;2210;51.938;8.488;2023-09-12T09:21:23;100330.97;;;18.69;100.00
4392;BME280;2210;51.938;8.488;2023-09-12T09:25:27;100347.34;;;18.76;100.00
4392;BME280;2210;51.938;8.488;2023-09-12T09:29:28;100340.25;;;18.84;100.00
4392;BME280;2210;51.938;8.488;2023-09-12T09:33:35;100322.22;;;18.76;100.00
4392;BME280;2210;51.938;8.488;2023-09-12T09:37:37;100284.06;;;18.66;100.00
4392;BME280;2210;51.938;8.488;2023-09-12T09:41:47;100291.66;;;18.61;100.00
4392;BME280;2210;51.938;8.488;2023-09-12T09:45:49;100284.41;;;18.60;100.00
4392;BME280;2210;51.938;8.488;2023-09-12T09:50:02;100319.03;;;18.64;100.00
4392;BME280;2210;51.938;8.488;2023-09-12T09:54:07;100327.31;;;18.69;100.00
4392;BME280;2210;51.938;8.488;2023-09-12T09:58:08;100296.94;;;18.62;100.00
4392;BME280;2210;51.938;8.488;2023-09-12T10:02:16;100355.50;;;18.73;100.00
4392;BME280;2210;51.938;8.488;2023-09-12T10:06:22;100325.44;;;18.64;100.00
4392;BME280;2210;51.938;8.488;2023-09-12T10:10:24;100314.50;;;18.68;100.00
4392;BME280;2210;51.938;8.488;2023-09-12T10:14:27;100304.75;;;18.65;100.00
4392;BME280;2210;51.938;8.488;2023-09-12T10:18:45;100362.16;;;18.77;100.00
4392;BME280;2210;51.938;8.488;2023-09-12T10:23:19;100358.13;;;18.64;100.00
4392;BME280;2210;51.938;8.488;2023-09-12T10:27:22;100345.03;;;18.59;100.00
4392;BME280;2210;51.938;8.488;2023-09-12T10:31:27;100340.91;;;18.51;100.00
4392;BME280;2210;51.938;8.488;2023-09-12T10:35:31;100318.16;;;18.39;100.00
4392;BME280;2210;51.938;8.488;2023-09-12T10:39:33;100313.72;;;18.38;100.00
4392;BME280;2210;51.938;8.488;2023-09-12T10:43:38;100304.13;;;18.44;100.00
4392;BME280;2210;51.938;8.488;2023-09-12T10:47:51;100305.31;;;18.62;100.00
4392;BME280;2210;51.938;8.488;2023-09-12T10:51:53;100294.41;;;18.66;100.00
4392;BME280;2210;51.938;8.488;2023-09-12T11:00:12;100294.41;;;18.66;100.00
4392;BME280;2210;51.938;8.488;2023-09-12T11:08:20;100287.50;;;18.82;100.00
4392;BME280;2210;51.938;8.488;2023-09-12T11:12:39;100287.50;;;18.82;100.00
4392;BME280;2210;51.938;8.488;2023-09-12T11:16:39;100282.69;;;18.88;100.00
4392;BME280;2210;51.938;8.488;2023-09-12T11:20:59;100284.38;;;18.89;100.00
4392;BME280;2210;51.938;8.488;2023-09-12T11:25:22;100276.75;;;18.95;100.00
4392;BME280;2210;51.938;8.488;2023-09-12T11:29:35;100283.94;;;19.01;100.00
4392;BME280;2210;51.938;8.488;2023-09-12T11:33:46;100274.75;;;19.19;100.00
4392;BME280;2210;51.938;8.488;2023-09-12T11:37:50;100276.69;;;19.19;100.00
4392;BME280;2210;51.938;8.488;2023-09-12T11:41:51;100271.09;;;19.57;100.00
4392;BME280;2210;51.938;8.488;2023-09-12T11:45:53;100277.94;;;19.84;100.00
4392;BME280;2210;51.938;8.488;2023-09-12T11:49:54;100277.53;;;19.58;100.00
4392;BME280;2210;51.938;8.488;2023-09-12T11:53:57;100278.63;;;19.76;100.00
4392;BME280;2210;51.938;8.488;2023-09-12T13:31:27;100229.53;;;21.22;100.00
4392;BME280;2210;51.938;8.488;2023-09-12T13:35:27;100221.75;;;21.19;100.00
4392;BME280;2210;51.938;8.488;2023-09-12T13:39:33;100210.16;;;21.12;100.00
4392;BME280;2210;51.938;8.488;2023-09-12T13:43:33;100217.69;;;21.26;100.00
4392;BME280;2210;51.938;8.488;2023-09-12T13:47:34;100220.50;;;21.26;100.00
4392;BME280;2210;51.938;8.488;2023-09-12T13:51:40;100219.44;;;21.21;100.00
4392;BME280;2210;51.938;8.488;2023-09-12T13:55:40;100211.19;;;21.16;100.00
4392;BME280;2210;51.938;8.488;2023-09-12T13:59:41;100211.34;;;21.20;100.00
4392;BME280;2210;51.938;8.488;2023-09-12T14:03:59;100210.47;;;21.33;100.00
4392;BME280;2210;51.938;8.488;2023-09-12T14:07:59;100210.91;;;21.27;100.00
4392;BME280;2210;51.938;8.488;2023-09-12T14:11:59;100206.72;;;21.38;100.00
4392;BME280;2210;51.938;8.488;2023-09-12T14:16:06;100209.66;;;21.33;100.00
4392;BME280;2210;51.938;8.488;2023-09-12T14:20:12;100193.31;;;21.35;100.00
4392;BME280;2210;51.938;8.488;2023-09-12T14:24:15;100195.31;;;21.34;100.00
4392;BME280;2210;51.938;8.488;2023-09-12T14:28:15;100187.28;;;21.42;100.00
4392;BME280;2210;51.938;8.488;2023-09-12T14:32:15;100180.19;;;21.44;100.00
4392;BME280;2210;51.938;8.488;2023-09-12T14:36:16;100176.38;;;21.40;100.00
4392;BME280;2210;51.938;8.488;2023-09-12T14:40:16;100173.66;;;21.49;100.00
4392;BME280;2210;51.938;8.488;2023-09-12T14:44:26;100166.19;;;21.44;100.00
4392;BME280;2210;51.938;8.488;2023-09-12T14:48:29;100173.00;;;21.52;100.00
4392;BME280;2210;51.938;8.488;2023-09-12T14:52:36;100173.81;;;21.52;100.00
4392;BME280;2210;51.938;8.488;2023-09-12T14:56:47;100177.19;;;21.54;100.00
4392;BME280;2210;51.938;8.488;2023-09-12T15:00:56;100176.53;;;21.58;100.00
4392;BME280;2210;51.938;8.488;2023-09-12T15:05:01;100173.06;;;21.61;100.00
4392;BME280;2210;51.938;8.488;2023-09-12T15:09:04;100170.09;;;21.57;100.00
4392;BME280;2210;51.938;8.488;2023-09-12T15:13:07;100169.25;;;21.56;100.00
4392;BME280;2210;51.938;8.488;2023-09-12T15:17:07;100169.25;;;21.56;100.00
4392;BME280;2210;51.938;8.488;2023-09-12T15:21:14;100165.06;;;21.68;100.00
4392;BME280;2210;51.938;8.488;2023-09-12T15:25:20;100156.75;;;21.63;100.00
4392;BME280;2210;51.938;8.488;2023-09-12T15:29:20;100150.13;;;21.59;100.00
4392;BME280;2210;51.938;8.488;2023-09-12T15:33:21;100148.66;;;21.61;100.00
4392;BME280;2210;51.938;8.488;2023-09-12T15:37:22;100152.03;;;21.72;100.00
4392;BME280;2210;51.938;8.488;2023-09-12T15:41:22;100140.47;;;21.73;100.00
4392;BME280;2210;51.938;8.488;2023-09-12T15:45:23;100137.31;;;21.66;100.00
4392;BME280;2210;51.938;8.488;2023-09-12T15:49:27;100125.94;;;21.71;100.00
4392;BME280;2210;51.938;8.488;2023-09-12T15:53:28;100126.31;;;21.79;100.00
4392;BME280;2210;51.938;8.488;2023-09-12T15:57:41;100111.97;;;21.80;100.00
4392;BME280;2210;51.938;8.488;2023-09-12T16:01:45;100114.25;;;21.78;100.00
4392;BME280;2210;51.938;8.488;2023-09-12T16:05:46;100105.81;;;21.69;100.00
4392;BME280;2210;51.938;8.488;2023-09-12T16:09:46;100100.19;;;21.69;100.00
4392;BME280;2210;51.938;8.488;2023-09-12T16:13:50;100102.59;;;21.62;100.00
4392;BME280;2210;51.938;8.488;2023-09-12T16:17:56;100098.19;;;21.70;100.00
4392;BME280;2210;51.938;8.488;2023-09-12T16:21:57;100092.91;;;21.68;100.00
4392;BME280;2210;51.938;8.488;2023-09-12T16:25:58;100102.94;;;21.61;100.00
4392;BME280;2210;51.938;8.488;2023-09-12T16:29:59;100115.63;;;21.58;100.00
4392;BME280;2210;51.938;8.488;2023-09-12T16:34:02;100127.00;;;21.53;100.00
4392;BME280;2210;51.938;8.488;2023-09-12T16:38:13;100128.34;;;21.55;100.00
4392;BME280;2210;51.938;8.488;2023-09-12T16:42:16;100127.91;;;21.48;100.00
4392;BME280;2210;51.938;8.488;2023-09-12T16:46:16;100122.31;;;21.48;100.00
4392;BME280;2210;51.938;8.488;2023-09-12T16:50:19;100133.84;;;21.47;100.00
4392;BME280;2210;51.938;8.488;2023-09-12T16:54:20;100130.38;;;21.41;100.00
4392;BME280;2210;51.938;8.488;2023-09-12T16:58:26;100132.34;;;21.41;100.00
4392;BME280;2210;51.938;8.488;2023-09-12T17:02:30;100133.16;;;21.41;100.00
4392;BME280;2210;51.938;8.488;2023-09-12T17:06:41;100135.28;;;21.35;100.00
4392;BME280;2210;51.938;8.488;2023-09-12T17:10:41;100129.34;;;21.37;100.00
4392;BME280;2210;51.938;8.488;2023-09-12T17:14:45;100137.41;;;21.30;100.00
4392;BME280;2210;51.938;8.488;2023-09-12T17:18:51;100151.09;;;21.31;100.00
4392;BME280;2210;51.938;8.488;2023-09-12T17:22:54;100155.81;;;21.22;100.00
4392;BME280;2210;51.938;8.488;2023-09-12T17:26:54;100153.44;;;21.15;100.00
4392;BME280;2210;51.938;8.488;2023-09-12T17:30:55;100158.03;;;21.11;100.00
4392;BME280;2210;51.938;8.488;2023-09-12T17:34:55;100154.59;;;21.14;100.00
4392;BME280;2210;51.938;8.488;2023-09-12T17:39:05;100151.91;;;21.09;100.00
4392;BME280;2210;51.938;8.488;2023-09-12T17:43:11;100151.19;;;21.03;100.00
4392;BME280;2210;51.938;8.488;2023-09-12T17:47:12;100152.59;;;20.92;100.00
4392;BME280;2210;51.938;8.488;2023-09-12T17:51:30;100153.09;;;20.94;100.00
4392;BME280;2210;51.938;8.488;2023-09-12T17:55:35;100161.19;;;20.96;100.00
4392;BME280;2210;51.938;8.488;2023-09-12T17:59:44;100156.03;;;20.89;100.00
4392;BME280;2210;51.938;8.488;2023-09-12T18:03:48;100155.31;;;20.83;100.00
4392;BME280;2210;51.938;8.488;2023-09-12T18:07:48;100147.31;;;20.91;100.00
4392;BME280;2210;51.938;8.488;2023-09-12T18:11:50;100152.41;;;20.88;100.00
4392;BME280;2210;51.938;8.488;2023-09-12T18:16:09;100146.28;;;20.86;100.00
4392;BME280;2210;51.938;8.488;2023-09-12T18:20:17;100146.63;;;20.85;100.00
4392;BME280;2210;51.938;8.488;2023-09-12T18:24:17;100153.34;;;20.84;100.00
4392;BME280;2210;51.938;8.488;2023-09-12T18:28:48;100157.63;;;20.81;100.00
4392;BME280;2210;51.938;8.488;2023-09-12T18:32:49;100171.94;;;20.80;100.00
4392;BME280;2210;51.938;8.488;2023-09-12T18:36:49;100172.06;;;20.61;100.00
4392;BME280;2210;51.938;8.488;2023-09-12T18:40:56;100167.38;;;20.56;100.00
4392;BME280;2210;51.938;8.488;2023-09-12T18:45:07;100173.69;;;20.62;100.00
4392;BME280;2210;51.938;8.488;2023-09-12T18:49:07;100179.44;;;20.57;100.00
4392;BME280;2210;51.938;8.488;2023-09-12T18:53:07;100162.50;;;20.62;100.00
4392;BME280;2210;51.938;8.488;2023-09-12T18:57:14;100180.66;;;20.78;100.00
4392;BME280;2210;51.938;8.488;2023-09-12T19:01:14;100173.28;;;20.82;100.00
4392;BME280;2210;51.938;8.488;2023-09-12T19:05:15;100171.63;;;20.81;100.00
4392;BME280;2210;51.938;8.488;2023-09-12T19:09:15;100166.66;;;20.78;100.00
4392;BME280;2210;51.938;8.488;2023-09-12T19:13:18;100158.75;;;20.80;100.00
4392;BME280;2210;51.938;8.488;2023-09-12T19:17:18;100161.97;;;20.74;100.00
4392;BME280;2210;51.938;8.488;2023-09-12T19:21:22;100153.25;;;20.75;100.00
4392;BME280;2210;51.938;8.488;2023-09-12T19:25:22;100138.66;;;20.78;100.00
4392;BME280;2210;51.938;8.488;2023-09-12T19:29:29;100122.03;;;20.68;100.00
4392;BME280;2210;51.938;8.488;2023-09-12T19:33:29;100124.53;;;20.69;100.00
4392;BME280;2210;51.938;8.488;2023-09-12T19:37:29;100114.16;;;20.70;100.00
4392;BME280;2210;51.938;8.488;2023-09-12T19:41:30;100110.00;;;20.67;100.00
4392;BME280;2210;51.938;8.488;2023-09-12T19:45:33;100104.63;;;20.57;100.00
4392;BME280;2210;51.938;8.488;2023-09-12T19:49:33;100092.91;;;20.55;100.00
4392;BME280;2210;51.938;8.488;2023-09-12T19:53:37;100097.78;;;20.49;100.00
4392;BME280;2210;51.938;8.488;2023-09-12T19:57:40;100099.97;;;20.52;100.00
4392;BME280;2210;51.938;8.488;2023-09-12T20:01:45;100097.41;;;20.42;100.00
4392;BME280;2210;51.938;8.488;2023-09-12T20:05:46;100099.47;;;20.50;100.00
4392;BME280;2210;51.938;8.488;2023-09-12T20:09:46;100107.97;;;20.45;100.00
4392;BME280;2210;51.938;8.488;2023-09-12T20:13:46;100117.97;;;20.37;100.00
4392;BME280;2210;51.938;8.488;2023-09-12T20:17:47;100138.69;;;20.36;100.00
4392;BME280;2210;51.938;8.488;2023-09-12T20:21:47;100129.44;;;20.50;100.00
4392;BME280;2210;51.938;8.488;2023-09-12T20:25:50;100127.66;;;20.40;100.00
4392;BME280;2210;51.938;8.488;2023-09-12T20:29:50;100127.13;;;20.52;100.00
4392;BME280;2210;51.938;8.488;2023-09-12T20:33:50;100121.47;;;20.43;100.00
4392;BME280;2210;51.938;8.488;2023-09-12T20:37:51;100124.59;;;20.42;100.00
4392;BME280;2210;51.938;8.488;2023-09-12T20:41:52;100100.72;;;20.30;100.00
4392;BME280;2210;51.938;8.488;2023-09-12T20:45:53;100097.75;;;20.27;100.00
4392;BME280;2210;51.938;8.488;2023-09-12T20:49:54;100111.84;;;20.21;100.00
4392;BME280;2210;51.938;8.488;2023-09-12T20:53:57;100110.09;;;20.12;100.00
4392;BME280;2210;51.938;8.488;2023-09-12T20:57:58;100111.75;;;19.99;100.00
4392;BME280;2210;51.938;8.488;2023-09-12T21:01:59;100092.50;;;19.97;100.00
4392;BME280;2210;51.938;8.488;2023-09-12T21:05:59;100063.69;;;19.97;100.00
4392;BME280;2210;51.938;8.488;2023-09-12T21:09:59;100070.72;;;19.94;100.00
4392;BME280;2210;51.938;8.488;2023-09-12T21:14:00;100072.19;;;19.92;100.00
4392;BME280;2210;51.938;8.488;2023-09-12T21:18:00;100075.72;;;19.83;100.00
4392;BME280;2210;51.938;8.488;2023-09-12T21:22:00;100072.97;;;19.64;100.00
4392;BME280;2210;51.938;8.488;2023-09-12T21:26:09;100072.75;;;19.61;100.00
4392;BME280;2210;51.938;8.488;2023-09-12T21:30:10;100121.44;;;19.60;100.00
4392;BME280;2210;51.938;8.488;2023-09-12T21:34:11;100176.97;;;19.66;100.00
4392;BME280;2210;51.938;8.488;2023-09-12T21:38:11;100190.47;;;19.78;100.00
4392;BME280;2210;51.938;8.488;2023-09-12T21:42:14;100167.41;;;19.86;100.00
4392;BME280;2210;51.938;8.488;2023-09-12T21:46:21;100140.28;;;19.68;100.00
4392;BME280;2210;51.938;8.488;2023-09-12T21:50:22;100189.69;;;19.59;100.00
4392;BME280;2210;51.938;8.488;2023-09-12T21:54:23;100201.00;;;19.67;100.00
4392;BME280;2210;51.938;8.488;2023-09-12T21:58:23;100199.72;;;19.60;100.00
4392;BME280;2210;51.938;8.488;2023-09-12T22:02:23;100189.44;;;19.41;100.00
4392;BME280;2210;51.938;8.488;2023-09-12T22:06:25;100175.63;;;19.31;100.00
4392;BME280;2210;51.938;8.488;2023-09-12T22:10:26;100133.28;;;19.24;100.00
4392;BME280;2210;51.938;8.488;2023-09-12T22:14:29;100095.00;;;19.05;100.00
4392;BME280;2210;51.938;8.488;2023-09-12T22:18:30;100107.69;;;18.97;100.00
4392;BME280;2210;51.938;8.488;2023-09-12T22:22:33;100128.97;;;19.12;100.00
4392;BME280;2210;51.938;8.488;2023-09-12T22:26:34;100135.78;;;19.06;100.00
4392;BME280;2210;51.938;8.488;2023-09-12T22:30:34;100154.00;;;19.03;100.00
4392;BME280;2210;51.938;8.488;2023-09-12T22:34:34;100170.97;;;19.07;100.00
4392;BME280;2210;51.938;8.488;2023-09-12T22:38:37;100183.66;;;18.99;100.00
4392;BME280;2210;51.938;8.488;2023-09-12T22:42:37;100186.22;;;18.96;100.00
4392;BME280;2210;51.938;8.488;2023-09-12T22:46:41;100175.06;;;18.96;100.00
4392;BME280;2210;51.938;8.488;2023-09-12T22:50:42;100155.19;;;18.97;100.00
4392;BME280;2210;51.938;8.488;2023-09-12T22:54:45;100141.38;;;19.06;100.00
4392;BME280;2210;51.938;8.488;2023-09-12T22:58:48;100119.75;;;19.12;100.00
4392;BME280;2210;51.938;8.488;2023-09-12T23:02:51;100110.44;;;19.16;100.00
4392;BME280;2210;51.938;8.488;2023-09-12T23:06:52;100086.84;;;19.09;100.00
4392;BME280;2210;51.938;8.488;2023-09-12T23:10:53;100073.88;;;18.99;100.00
4392;BME280;2210;51.938;8.488;2023-09-12T23:14:53;100060.09;;;18.89;100.00
4392;BME280;2210;51.938;8.488;2023-09-12T23:18:54;100048.53;;;18.76;100.00
4392;BME280;2210;51.938;8.488;2023-09-12T23:22:57;100038.91;;;18.82;100.00